sensor_id;sensor_type;location;lat;lon;timestamp;temperature;humidity
5554;DHT22;2800;49.528;8.666;2023-07-30T00:01:48;18.70;99.90
5554;DHT22;2800;49.528;8.666;2023-07-30T00:04:13;18.70;99.90
5554;DHT22;2800;49.528;8.666;2023-07-30T00:06:39;18.70;99.90
5554;DHT22;2800;49.528;8.666;2023-07-30T00:09:04;18.70;99.90
5554;DHT22;2800;49.528;8.666;2023-07-30T00:11:30;18.60;99.90
5554;DHT22;2800;49.528;8.666;2023-07-30T00:13:55;18.60;99.90
5554;DHT22;2800;49.528;8.666;2023-07-30T00:16:21;18.60;99.90
5554;DHT22;2800;49.528;8.666;2023-07-30T00:18:46;18.60;99.90
5554;DHT22;2800;49.528;8.666;2023-07-30T00:21:12;18.60;99.90
5554;DHT22;2800;49.528;8.666;2023-07-30T00:23:37;18.60;99.90
5554;DHT22;2800;49.528;8.666;2023-07-30T00:26:03;18.60;99.90
5554;DHT22;2800;49.528;8.666;2023-07-30T00:28:28;18.60;99.90
5554;DHT22;2800;49.528;8.666;2023-07-30T00:30:53;18.60;99.90
5554;DHT22;2800;49.528;8.666;2023-07-30T00:33:19;18.60;99.90
5554;DHT22;2800;49.528;8.666;2023-07-30T00:35:44;18.60;99.90
5554;DHT22;2800;49.528;8.666;2023-07-30T00:38:10;18.60;99.90
5554;DHT22;2800;49.528;8.666;2023-07-30T00:40:40;18.50;99.90
5554;DHT22;2800;49.528;8.666;2023-07-30T00:43:06;18.60;99.90
5554;DHT22;2800;49.528;8.666;2023-07-30T00:45:32;18.60;99.90
5554;DHT22;2800;49.528;8.666;2023-07-30T00:47:57;18.70;99.90
5554;DHT22;2800;49.528;8.666;2023-07-30T00:50:23;18.60;99.90
5554;DHT22;2800;49.528;8.666;2023-07-30T00:52:48;18.70;99.90
5554;DHT22;2800;49.528;8.666;2023-07-30T00:55:15;18.70;99.90
5554;DHT22;2800;49.528;8.666;2023-07-30T00:57:41;18.70;99.90
5554;DHT22;2800;49.528;8.666;2023-07-30T01:00:08;18.70;99.90
5554;DHT22;2800;49.528;8.666;2023-07-30T01:02:35;18.70;99.90
5554;DHT22;2800;49.528;8.666;2023-07-30T01:05:02;18.70;99.90
5554;DHT22;2800;49.528;8.666;2023-07-30T01:07:29;18.70;99.90
5554;DHT22;2800;49.528;8.666;2023-07-30T01:09:55;18.70;99.90
5554;DHT22;2800;49.528;8.666;2023-07-30T01:12:21;18.70;99.90
5554;DHT22;2800;49.528;8.666;2023-07-30T01:14:47;18.70;99.90
5554;DHT22;2800;49.528;8.666;2023-07-30T01:17:13;18.70;99.90
5554;DHT22;2800;49.528;8.666;2023-07-30T01:19:39;18.60;99.90
5554;DHT22;2800;49.528;8.666;2023-07-30T01:22:05;18.70;99.90
5554;DHT22;2800;49.528;8.666;2023-07-30T01:24:30;18.60;99.90
5554;DHT22;2800;49.528;8.666;2023-07-30T01:27:00;18.60;99.90
5554;DHT22;2800;49.528;8.666;2023-07-30T01:29:32;18.60;99.90
5554;DHT22;2800;49.528;8.666;2023-07-30T01:32:02;18.60;99.90
5554;DHT22;2800;49.528;8.666;2023-07-30T01:34:30;18.60;99.90
5554;DHT22;2800;49.528;8.666;2023-07-30T01:37:00;18.60;99.90
5554;DHT22;2800;49.528;8.666;2023-07-30T01:39:26;18.60;99.90
5554;DHT22;2800;49.528;8.666;2023-07-30T01:41:55;18.60;99.90
5554;DHT22;2800;49.528;8.666;2023-07-30T01:44:21;18.60;99.90
5554;DHT22;2800;49.528;8.666;2023-07-30T01:46:47;18.60;99.90
5554;DHT22;2800;49.528;8.666;2023-07-30T01:49:12;18.60;99.90
5554;DHT22;2800;49.528;8.666;2023-07-30T01:51:38;18.60;99.90
5554;DHT22;2800;49.528;8.666;2023-07-30T01:54:03;18.60;99.90
5554;DHT22;2800;49.528;8.666;2023-07-30T01:56:29;18.60;99.90
5554;DHT22;2800;49.528;8.666;2023-07-30T01:58:55;18.50;99.90
5554;DHT22;2800;49.528;8.666;2023-07-30T02:01:20;18.60;99.90
5554;DHT22;2800;49.528;8.666;2023-07-30T02:03:46;18.60;99.90
5554;DHT22;2800;49.528;8.666;2023-07-30T02:06:11;18.60;99.90
5554;DHT22;2800;49.528;8.666;2023-07-30T02:08:37;18.60;99.90
5554;DHT22;2800;49.528;8.666;2023-07-30T02:11:03;18.60;99.90
5554;DHT22;2800;49.528;8.666;2023-07-30T02:13:28;18.60;99.90
5554;DHT22;2800;49.528;8.666;2023-07-30T02:15:54;18.60;99.90
5554;DHT22;2800;49.528;8.666;2023-07-30T02:18:19;18.40;99.90
5554;DHT22;2800;49.528;8.666;2023-07-30T02:20:45;18.60;99.90
5554;DHT22;2800;49.528;8.666;2023-07-30T02:23:10;18.60;99.90
5554;DHT22;2800;49.528;8.666;2023-07-30T02:25:37;18.60;99.90
5554;DHT22;2800;49.528;8.666;2023-07-30T02:28:03;18.50;99.90
5554;DHT22;2800;49.528;8.666;2023-07-30T02:30:29;18.50;99.90
5554;DHT22;2800;49.528;8.666;2023-07-30T02:32:54;18.50;99.90
5554;DHT22;2800;49.528;8.666;2023-07-30T02:35:20;18.60;99.90
5554;DHT22;2800;49.528;8.666;2023-07-30T02:37:45;18.50;99.90
5554;DHT22;2800;49.528;8.666;2023-07-30T02:40:11;18.60;99.90
5554;DHT22;2800;49.528;8.666;2023-07-30T02:42:36;18.50;99.90
5554;DHT22;2800;49.528;8.666;2023-07-30T02:45:03;18.50;99.90
5554;DHT22;2800;49.528;8.666;2023-07-30T02:47:28;18.50;99.90
5554;DHT22;2800;49.528;8.666;2023-07-30T02:49:54;18.50;99.90
5554;DHT22;2800;49.528;8.666;2023-07-30T02:52:19;18.40;99.90
5554;DHT22;2800;49.528;8.666;2023-07-30T02:54:45;18.40;99.90
5554;DHT22;2800;49.528;8.666;2023-07-30T02:57:10;18.40;99.90
5554;DHT22;2800;49.528;8.666;2023-07-30T02:59:37;18.40;99.90
5554;DHT22;2800;49.528;8.666;2023-07-30T03:02:03;18.30;99.90
5554;DHT22;2800;49.528;8.666;2023-07-30T03:04:32;18.40;99.90
5554;DHT22;2800;49.528;8.666;2023-07-30T03:06:58;18.30;99.90
5554;DHT22;2800;49.528;8.666;2023-07-30T03:09:24;18.30;99.90
5554;DHT22;2800;49.528;8.666;2023-07-30T03:11:50;18.30;99.90
5554;DHT22;2800;49.528;8.666;2023-07-30T03:14:15;18.20;99.90
5554;DHT22;2800;49.528;8.666;2023-07-30T03:16:41;18.30;99.90
5554;DHT22;2800;49.528;8.666;2023-07-30T03:19:07;18.30;99.90
5554;DHT22;2800;49.528;8.666;2023-07-30T03:21:32;18.30;99.90
5554;DHT22;2800;49.528;8.666;2023-07-30T03:23:58;18.10;99.90
5554;DHT22;2800;49.528;8.666;2023-07-30T03:26:23;18.20;99.90
5554;DHT22;2800;49.528;8.666;2023-07-30T03:28:49;18.20;99.90
5554;DHT22;2800;49.528;8.666;2023-07-30T03:31:15;18.20;99.90
5554;DHT22;2800;49.528;8.666;2023-07-30T03:33:40;18.20;99.90
5554;DHT22;2800;49.528;8.666;2023-07-30T03:36:10;18.20;99.90
5554;DHT22;2800;49.528;8.666;2023-07-30T03:38:36;18.30;99.90
5554;DHT22;2800;49.528;8.666;2023-07-30T03:41:01;18.30;99.90
5554;DHT22;2800;49.528;8.666;2023-07-30T03:43:27;18.30;99.90
5554;DHT22;2800;49.528;8.666;2023-07-30T03:45:52;18.30;99.90
5554;DHT22;2800;49.528;8.666;2023-07-30T03:48:18;18.30;99.90
5554;DHT22;2800;49.528;8.666;2023-07-30T03:50:43;18.20;99.90
5554;DHT22;2800;49.528;8.666;2023-07-30T03:53:09;18.20;99.90
5554;DHT22;2800;49.528;8.666;2023-07-30T03:55:34;18.20;99.90
5554;DHT22;2800;49.528;8.666;2023-07-30T03:58:00;18.20;99.90
5554;DHT22;2800;49.528;8.666;2023-07-30T04:00:25;18.10;99.90
5554;DHT22;2800;49.528;8.666;2023-07-30T04:02:51;18.20;99.90
5554;DHT22;2800;49.528;8.666;2023-07-30T04:05:16;18.20;99.90
5554;DHT22;2800;49.528;8.666;2023-07-30T04:07:42;18.20;99.90
5554;DHT22;2800;49.528;8.666;2023-07-30T04:10:08;18.20;99.90
5554;DHT22;2800;49.528;8.666;2023-07-30T04:12:33;18.10;99.90
5554;DHT22;2800;49.528;8.666;2023-07-30T04:14:59;18.20;99.90
5554;DHT22;2800;49.528;8.666;2023-07-30T04:17:24;18.20;99.90
5554;DHT22;2800;49.528;8.666;2023-07-30T04:19:50;18.20;99.90
5554;DHT22;2800;49.528;8.666;2023-07-30T04:22:15;18.20;99.90
5554;DHT22;2800;49.528;8.666;2023-07-30T04:24:41;18.20;99.90
5554;DHT22;2800;49.528;8.666;2023-07-30T04:27:07;18.30;99.90
5554;DHT22;2800;49.528;8.666;2023-07-30T04:29:32;18.20;99.90
5554;DHT22;2800;49.528;8.666;2023-07-30T04:31:58;18.20;99.90
5554;DHT22;2800;49.528;8.666;2023-07-30T04:34:23;18.20;99.90
5554;DHT22;2800;49.528;8.666;2023-07-30T04:36:49;18.20;99.90
5554;DHT22;2800;49.528;8.666;2023-07-30T04:39:14;18.20;99.90
5554;DHT22;2800;49.528;8.666;2023-07-30T04:41:40;18.20;99.90
5554;DHT22;2800;49.528;8.666;2023-07-30T04:44:05;18.20;99.90
5554;DHT22;2800;49.528;8.666;2023-07-30T04:46:31;18.20;99.90
5554;DHT22;2800;49.528;8.666;2023-07-30T04:48:58;18.20;99.90
5554;DHT22;2800;49.528;8.666;2023-07-30T04:51:24;18.20;99.90
5554;DHT22;2800;49.528;8.666;2023-07-30T04:53:49;18.20;99.90
5554;DHT22;2800;49.528;8.666;2023-07-30T04:56:15;18.20;99.90
5554;DHT22;2800;49.528;8.666;2023-07-30T04:58:40;18.20;99.90
5554;DHT22;2800;49.528;8.666;2023-07-30T05:01:06;18.20;99.90
5554;DHT22;2800;49.528;8.666;2023-07-30T05:03:31;18.20;99.90
5554;DHT22;2800;49.528;8.666;2023-07-30T05:05:57;18.20;99.90
5554;DHT22;2800;49.528;8.666;2023-07-30T05:08:22;18.20;99.90
5554;DHT22;2800;49.528;8.666;2023-07-30T05:10:48;18.30;99.90
5554;DHT22;2800;49.528;8.666;2023-07-30T05:13:13;18.20;99.90
5554;DHT22;2800;49.528;8.666;2023-07-30T05:15:39;18.30;99.90
5554;DHT22;2800;49.528;8.666;2023-07-30T05:18:04;18.30;99.90
5554;DHT22;2800;49.528;8.666;2023-07-30T05:20:30;18.30;99.90
5554;DHT22;2800;49.528;8.666;2023-07-30T05:22:55;18.30;99.90
5554;DHT22;2800;49.528;8.666;2023-07-30T05:25:21;18.30;99.90
5554;DHT22;2800;49.528;8.666;2023-07-30T05:27:46;18.40;99.90
5554;DHT22;2800;49.528;8.666;2023-07-30T05:30:12;18.30;99.90
5554;DHT22;2800;49.528;8.666;2023-07-30T05:32:37;18.30;99.90
5554;DHT22;2800;49.528;8.666;2023-07-30T05:35:03;18.30;99.90
5554;DHT22;2800;49.528;8.666;2023-07-30T05:37:28;18.40;99.90
5554;DHT22;2800;49.528;8.666;2023-07-30T05:39:54;18.40;99.90
5554;DHT22;2800;49.528;8.666;2023-07-30T05:42:19;18.50;99.90
5554;DHT22;2800;49.528;8.666;2023-07-30T05:44:45;18.50;99.90
5554;DHT22;2800;49.528;8.666;2023-07-30T05:47:11;18.60;99.90
5554;DHT22;2800;49.528;8.666;2023-07-30T05:49:36;18.60;99.90
5554;DHT22;2800;49.528;8.666;2023-07-30T05:52:02;18.80;99.90
5554;DHT22;2800;49.528;8.666;2023-07-30T05:54:27;18.80;99.90
5554;DHT22;2800;49.528;8.666;2023-07-30T05:56:53;18.80;99.90
5554;DHT22;2800;49.528;8.666;2023-07-30T05:59:19;18.90;99.90
5554;DHT22;2800;49.528;8.666;2023-07-30T06:01:45;19.00;99.90
5554;DHT22;2800;49.528;8.666;2023-07-30T06:04:10;19.00;99.90
5554;DHT22;2800;49.528;8.666;2023-07-30T06:06:36;19.00;99.90
5554;DHT22;2800;49.528;8.666;2023-07-30T06:09:01;18.90;99.90
5554;DHT22;2800;49.528;8.666;2023-07-30T06:11:27;18.90;99.90
5554;DHT22;2800;49.528;8.666;2023-07-30T06:13:53;19.00;99.90
5554;DHT22;2800;49.528;8.666;2023-07-30T06:16:19;19.20;99.90
5554;DHT22;2800;49.528;8.666;2023-07-30T06:18:46;19.20;99.90
5554;DHT22;2800;49.528;8.666;2023-07-30T06:21:11;19.30;99.90
5554;DHT22;2800;49.528;8.666;2023-07-30T06:23:37;19.40;99.90
5554;DHT22;2800;49.528;8.666;2023-07-30T06:26:02;19.40;99.90
5554;DHT22;2800;49.528;8.666;2023-07-30T06:28:28;19.40;99.90
5554;DHT22;2800;49.528;8.666;2023-07-30T06:30:53;19.30;99.90
5554;DHT22;2800;49.528;8.666;2023-07-30T06:33:19;19.40;99.90
5554;DHT22;2800;49.528;8.666;2023-07-30T06:35:45;19.50;99.90
5554;DHT22;2800;49.528;8.666;2023-07-30T06:38:10;19.70;99.90
5554;DHT22;2800;49.528;8.666;2023-07-30T06:40:36;19.80;99.90
5554;DHT22;2800;49.528;8.666;2023-07-30T06:43:01;19.80;99.90
5554;DHT22;2800;49.528;8.666;2023-07-30T06:45:27;19.80;99.90
5554;DHT22;2800;49.528;8.666;2023-07-30T06:47:53;19.80;99.90
5554;DHT22;2800;49.528;8.666;2023-07-30T06:50:18;19.80;99.90
5554;DHT22;2800;49.528;8.666;2023-07-30T06:52:44;19.80;99.90
5554;DHT22;2800;49.528;8.666;2023-07-30T06:55:10;19.60;99.90
5554;DHT22;2800;49.528;8.666;2023-07-30T06:57:35;19.50;99.90
5554;DHT22;2800;49.528;8.666;2023-07-30T07:00:01;19.50;99.90
5554;DHT22;2800;49.528;8.666;2023-07-30T07:02:27;19.50;99.90
5554;DHT22;2800;49.528;8.666;2023-07-30T07:04:54;19.50;99.90
5554;DHT22;2800;49.528;8.666;2023-07-30T07:07:19;19.50;99.90
5554;DHT22;2800;49.528;8.666;2023-07-30T07:09:45;19.50;99.90
5554;DHT22;2800;49.528;8.666;2023-07-30T07:12:11;19.50;99.90
5554;DHT22;2800;49.528;8.666;2023-07-30T07:14:36;19.50;99.90
5554;DHT22;2800;49.528;8.666;2023-07-30T07:17:02;19.40;99.90
5554;DHT22;2800;49.528;8.666;2023-07-30T07:19:28;19.30;99.90
5554;DHT22;2800;49.528;8.666;2023-07-30T07:21:53;19.30;99.90
5554;DHT22;2800;49.528;8.666;2023-07-30T07:24:19;19.40;99.90
5554;DHT22;2800;49.528;8.666;2023-07-30T07:26:44;19.50;99.90
5554;DHT22;2800;49.528;8.666;2023-07-30T07:29:10;19.50;99.90
5554;DHT22;2800;49.528;8.666;2023-07-30T07:31:36;19.50;99.90
5554;DHT22;2800;49.528;8.666;2023-07-30T07:34:01;19.50;99.90
5554;DHT22;2800;49.528;8.666;2023-07-30T07:36:27;19.40;99.90
5554;DHT22;2800;49.528;8.666;2023-07-30T07:38:53;19.30;99.90
5554;DHT22;2800;49.528;8.666;2023-07-30T07:41:18;19.10;99.90
5554;DHT22;2800;49.528;8.666;2023-07-30T07:43:45;19.10;99.90
5554;DHT22;2800;49.528;8.666;2023-07-30T07:46:11;19.00;99.90
5554;DHT22;2800;49.528;8.666;2023-07-30T07:48:42;18.90;99.90
5554;DHT22;2800;49.528;8.666;2023-07-30T07:51:11;18.80;99.90
5554;DHT22;2800;49.528;8.666;2023-07-30T07:53:37;18.70;99.90
5554;DHT22;2800;49.528;8.666;2023-07-30T07:56:03;18.70;99.90
5554;DHT22;2800;49.528;8.666;2023-07-30T07:58:30;18.70;99.90
5554;DHT22;2800;49.528;8.666;2023-07-30T08:00:56;18.70;99.90
5554;DHT22;2800;49.528;8.666;2023-07-30T08:03:22;18.80;99.90
5554;DHT22;2800;49.528;8.666;2023-07-30T08:05:48;18.80;99.90
5554;DHT22;2800;49.528;8.666;2023-07-30T08:08:14;19.00;99.90
5554;DHT22;2800;49.528;8.666;2023-07-30T08:10:41;19.00;99.90
5554;DHT22;2800;49.528;8.666;2023-07-30T08:13:12;19.10;99.90
5554;DHT22;2800;49.528;8.666;2023-07-30T08:15:37;19.30;99.90
5554;DHT22;2800;49.528;8.666;2023-07-30T08:18:03;19.40;99.90
5554;DHT22;2800;49.528;8.666;2023-07-30T08:20:28;19.50;99.90
5554;DHT22;2800;49.528;8.666;2023-07-30T08:22:54;19.60;99.90
5554;DHT22;2800;49.528;8.666;2023-07-30T08:25:20;19.80;99.90
5554;DHT22;2800;49.528;8.666;2023-07-30T08:27:46;20.00;99.90
5554;DHT22;2800;49.528;8.666;2023-07-30T08:30:12;20.00;99.90
5554;DHT22;2800;49.528;8.666;2023-07-30T08:32:37;20.10;99.90
5554;DHT22;2800;49.528;8.666;2023-07-30T08:35:04;20.30;99.90
5554;DHT22;2800;49.528;8.666;2023-07-30T08:37:29;20.30;99.90
5554;DHT22;2800;49.528;8.666;2023-07-30T08:39:55;20.50;99.90
5554;DHT22;2800;49.528;8.666;2023-07-30T08:42:20;20.50;99.90
5554;DHT22;2800;49.528;8.666;2023-07-30T08:44:46;20.50;99.90
5554;DHT22;2800;49.528;8.666;2023-07-30T08:47:12;20.40;99.90
5554;DHT22;2800;49.528;8.666;2023-07-30T08:49:38;20.50;99.90
5554;DHT22;2800;49.528;8.666;2023-07-30T08:52:06;20.50;99.90
5554;DHT22;2800;49.528;8.666;2023-07-30T08:54:34;20.60;99.90
5554;DHT22;2800;49.528;8.666;2023-07-30T08:57:00;20.70;99.90
5554;DHT22;2800;49.528;8.666;2023-07-30T08:59:27;21.00;99.90
5554;DHT22;2800;49.528;8.666;2023-07-30T09:01:57;21.40;99.90
5554;DHT22;2800;49.528;8.666;2023-07-30T09:04:23;21.70;99.90
5554;DHT22;2800;49.528;8.666;2023-07-30T09:06:49;22.00;99.90
5554;DHT22;2800;49.528;8.666;2023-07-30T09:09:15;22.40;99.90
5554;DHT22;2800;49.528;8.666;2023-07-30T09:11:41;22.40;99.90
5554;DHT22;2800;49.528;8.666;2023-07-30T09:14:07;22.50;99.90
5554;DHT22;2800;49.528;8.666;2023-07-30T09:16:33;22.50;99.90
5554;DHT22;2800;49.528;8.666;2023-07-30T09:18:59;22.70;99.90
5554;DHT22;2800;49.528;8.666;2023-07-30T09:21:34;23.40;99.90
5554;DHT22;2800;49.528;8.666;2023-07-30T09:24:03;22.80;99.90
5554;DHT22;2800;49.528;8.666;2023-07-30T09:26:45;22.80;99.90
5554;DHT22;2800;49.528;8.666;2023-07-30T09:29:11;22.90;99.90
5554;DHT22;2800;49.528;8.666;2023-07-30T09:31:48;22.60;99.90
5554;DHT22;2800;49.528;8.666;2023-07-30T09:34:16;22.70;99.90
5554;DHT22;2800;49.528;8.666;2023-07-30T09:36:43;22.90;99.90
5554;DHT22;2800;49.528;8.666;2023-07-30T09:39:22;22.90;99.90
5554;DHT22;2800;49.528;8.666;2023-07-30T09:41:49;22.80;99.90
5554;DHT22;2800;49.528;8.666;2023-07-30T09:44:17;22.90;99.90
5554;DHT22;2800;49.528;8.666;2023-07-30T09:46:44;22.60;99.90
5554;DHT22;2800;49.528;8.666;2023-07-30T09:49:10;22.30;99.90
5554;DHT22;2800;49.528;8.666;2023-07-30T09:51:39;22.10;99.90
5554;DHT22;2800;49.528;8.666;2023-07-30T09:54:06;22.10;99.90
5554;DHT22;2800;49.528;8.666;2023-07-30T09:56:33;21.90;99.90
5554;DHT22;2800;49.528;8.666;2023-07-30T09:58:59;22.00;99.90
5554;DHT22;2800;49.528;8.666;2023-07-30T10:01:26;21.90;99.90
5554;DHT22;2800;49.528;8.666;2023-07-30T10:03:55;21.80;99.90
5554;DHT22;2800;49.528;8.666;2023-07-30T10:06:21;21.70;99.90
5554;DHT22;2800;49.528;8.666;2023-07-30T10:08:49;21.70;99.90
5554;DHT22;2800;49.528;8.666;2023-07-30T10:11:16;21.60;99.90
5554;DHT22;2800;49.528;8.666;2023-07-30T10:13:42;22.20;99.90
5554;DHT22;2800;49.528;8.666;2023-07-30T10:16:11;22.30;99.90
5554;DHT22;2800;49.528;8.666;2023-07-30T10:18:40;22.30;99.90
5554;DHT22;2800;49.528;8.666;2023-07-30T10:21:07;21.90;99.90
5554;DHT22;2800;49.528;8.666;2023-07-30T10:23:34;22.70;99.90
5554;DHT22;2800;49.528;8.666;2023-07-30T10:26:09;22.80;99.90
5554;DHT22;2800;49.528;8.666;2023-07-30T10:28:35;22.60;99.90
5554;DHT22;2800;49.528;8.666;2023-07-30T10:31:06;23.20;99.90
5554;DHT22;2800;49.528;8.666;2023-07-30T10:33:49;23.50;95.80
5554;DHT22;2800;49.528;8.666;2023-07-30T10:36:17;22.60;96.20
5554;DHT22;2800;49.528;8.666;2023-07-30T10:38:43;23.20;98.90
5554;DHT22;2800;49.528;8.666;2023-07-30T10:41:12;23.80;99.90
5554;DHT22;2800;49.528;8.666;2023-07-30T10:43:43;23.90;94.00
5554;DHT22;2800;49.528;8.666;2023-07-30T10:46:11;24.00;94.40
5554;DHT22;2800;49.528;8.666;2023-07-30T10:48:38;22.90;99.70
5554;DHT22;2800;49.528;8.666;2023-07-30T10:51:06;23.10;99.90
5554;DHT22;2800;49.528;8.666;2023-07-30T10:53:32;23.50;99.90
5554;DHT22;2800;49.528;8.666;2023-07-30T10:55:59;23.80;99.90
5554;DHT22;2800;49.528;8.666;2023-07-30T10:58:27;23.40;97.90
5554;DHT22;2800;49.528;8.666;2023-07-30T11:00:53;24.10;95.80
5554;DHT22;2800;49.528;8.666;2023-07-30T11:03:19;24.30;86.30
5554;DHT22;2800;49.528;8.666;2023-07-30T11:05:48;23.70;81.20
5554;DHT22;2800;49.528;8.666;2023-07-30T11:08:14;23.90;81.10
5554;DHT22;2800;49.528;8.666;2023-07-30T11:10:46;24.50;87.30
5554;DHT22;2800;49.528;8.666;2023-07-30T11:13:13;25.80;90.00
5554;DHT22;2800;49.528;8.666;2023-07-30T11:15:44;25.90;81.70
5554;DHT22;2800;49.528;8.666;2023-07-30T11:18:11;24.70;76.60
5554;DHT22;2800;49.528;8.666;2023-07-30T11:20:37;24.60;87.00
5554;DHT22;2800;49.528;8.666;2023-07-30T11:23:25;24.80;82.00
5554;DHT22;2800;49.528;8.666;2023-07-30T11:25:51;25.10;81.60
5554;DHT22;2800;49.528;8.666;2023-07-30T11:28:37;25.00;76.20
5554;DHT22;2800;49.528;8.666;2023-07-30T11:33:28;23.80;77.30
5554;DHT22;2800;49.528;8.666;2023-07-30T11:35:58;23.30;82.30
5554;DHT22;2800;49.528;8.666;2023-07-30T11:38:26;23.70;78.10
5554;DHT22;2800;49.528;8.666;2023-07-30T11:40:53;23.60;78.30
5554;DHT22;2800;49.528;8.666;2023-07-30T11:43:20;23.10;79.10
5554;DHT22;2800;49.528;8.666;2023-07-30T11:45:46;22.80;83.80
5554;DHT22;2800;49.528;8.666;2023-07-30T11:48:12;22.60;80.60
5554;DHT22;2800;49.528;8.666;2023-07-30T11:50:48;22.30;76.10
5554;DHT22;2800;49.528;8.666;2023-07-30T11:53:14;22.20;82.50
5554;DHT22;2800;49.528;8.666;2023-07-30T11:55:41;22.40;80.50
5554;DHT22;2800;49.528;8.666;2023-07-30T11:58:08;23.80;69.80
5554;DHT22;2800;49.528;8.666;2023-07-30T12:00:36;25.30;69.70
5554;DHT22;2800;49.528;8.666;2023-07-30T12:03:03;25.00;56.60
5554;DHT22;2800;49.528;8.666;2023-07-30T12:05:33;25.00;59.80
5554;DHT22;2800;49.528;8.666;2023-07-30T12:08:02;24.30;56.90
5554;DHT22;2800;49.528;8.666;2023-07-30T12:10:44;23.50;54.10
5554;DHT22;2800;49.528;8.666;2023-07-30T12:13:19;22.90;60.30
5554;DHT22;2800;49.528;8.666;2023-07-30T12:15:55;22.70;63.80
5554;DHT22;2800;49.528;8.666;2023-07-30T12:18:22;22.50;59.70
5554;DHT22;2800;49.528;8.666;2023-07-30T12:20:53;22.60;57.40
5554;DHT22;2800;49.528;8.666;2023-07-30T12:23:20;22.70;51.10
5554;DHT22;2800;49.528;8.666;2023-07-30T12:25:45;23.90;52.60
5554;DHT22;2800;49.528;8.666;2023-07-30T12:28:12;23.70;54.50
5554;DHT22;2800;49.528;8.666;2023-07-30T12:30:37;23.60;57.00
5554;DHT22;2800;49.528;8.666;2023-07-30T12:33:04;23.50;57.60
5554;DHT22;2800;49.528;8.666;2023-07-30T12:35:30;23.50;57.70
5554;DHT22;2800;49.528;8.666;2023-07-30T12:37:56;23.30;56.60
5554;DHT22;2800;49.528;8.666;2023-07-30T12:40:22;23.40;52.90
5554;DHT22;2800;49.528;8.666;2023-07-30T12:42:47;23.90;52.90
5554;DHT22;2800;49.528;8.666;2023-07-30T12:45:13;24.20;47.50
5554;DHT22;2800;49.528;8.666;2023-07-30T12:47:39;24.90;44.50
5554;DHT22;2800;49.528;8.666;2023-07-30T12:50:05;25.50;46.30
5554;DHT22;2800;49.528;8.666;2023-07-30T12:52:32;25.80;41.30
5554;DHT22;2800;49.528;8.666;2023-07-30T12:54:58;24.30;37.60
5554;DHT22;2800;49.528;8.666;2023-07-30T12:57:23;24.10;40.20
5554;DHT22;2800;49.528;8.666;2023-07-30T12:59:49;23.70;41.80
5554;DHT22;2800;49.528;8.666;2023-07-30T13:02:14;23.60;46.00
5554;DHT22;2800;49.528;8.666;2023-07-30T13:04:40;23.30;42.80
5554;DHT22;2800;49.528;8.666;2023-07-30T13:07:05;23.00;39.20
5554;DHT22;2800;49.528;8.666;2023-07-30T13:09:31;23.00;42.50
5554;DHT22;2800;49.528;8.666;2023-07-30T13:11:57;23.10;42.40
5554;DHT22;2800;49.528;8.666;2023-07-30T13:14:23;23.70;39.10
5554;DHT22;2800;49.528;8.666;2023-07-30T13:16:48;24.00;38.60
5554;DHT22;2800;49.528;8.666;2023-07-30T13:19:14;24.10;39.30
5554;DHT22;2800;49.528;8.666;2023-07-30T13:21:39;24.00;47.20
5554;DHT22;2800;49.528;8.666;2023-07-30T13:24:05;23.80;39.00
5554;DHT22;2800;49.528;8.666;2023-07-30T13:26:30;23.40;40.50
5554;DHT22;2800;49.528;8.666;2023-07-30T13:28:56;23.30;39.50
5554;DHT22;2800;49.528;8.666;2023-07-30T13:31:21;23.50;45.10
5554;DHT22;2800;49.528;8.666;2023-07-30T13:33:47;23.50;40.10
5554;DHT22;2800;49.528;8.666;2023-07-30T13:36:13;22.90;39.10
5554;DHT22;2800;49.528;8.666;2023-07-30T13:38:39;22.50;37.40
5554;DHT22;2800;49.528;8.666;2023-07-30T13:41:06;22.40;40.00
5554;DHT22;2800;49.528;8.666;2023-07-30T13:43:32;22.40;40.70
5554;DHT22;2800;49.528;8.666;2023-07-30T13:45:58;22.40;41.10
5554;DHT22;2800;49.528;8.666;2023-07-30T13:48:26;22.40;39.70
5554;DHT22;2800;49.528;8.666;2023-07-30T13:50:52;22.30;38.60
5554;DHT22;2800;49.528;8.666;2023-07-30T13:53:18;22.30;40.00
5554;DHT22;2800;49.528;8.666;2023-07-30T13:55:44;22.50;39.90
5554;DHT22;2800;49.528;8.666;2023-07-30T13:58:10;22.50;41.60
5554;DHT22;2800;49.528;8.666;2023-07-30T14:00:35;22.30;40.40
5554;DHT22;2800;49.528;8.666;2023-07-30T14:03:01;22.20;43.60
5554;DHT22;2800;49.528;8.666;2023-07-30T14:05:27;22.40;40.70
5554;DHT22;2800;49.528;8.666;2023-07-30T14:07:54;22.60;38.60
5554;DHT22;2800;49.528;8.666;2023-07-30T14:10:22;22.90;38.80
5554;DHT22;2800;49.528;8.666;2023-07-30T14:12:48;23.60;37.60
5554;DHT22;2800;49.528;8.666;2023-07-30T14:15:13;23.90;41.70
5554;DHT22;2800;49.528;8.666;2023-07-30T14:17:40;24.00;40.90
5554;DHT22;2800;49.528;8.666;2023-07-30T14:20:06;24.20;37.30
5554;DHT22;2800;49.528;8.666;2023-07-30T14:22:32;24.30;36.80
5554;DHT22;2800;49.528;8.666;2023-07-30T14:24:58;23.70;35.00
5554;DHT22;2800;49.528;8.666;2023-07-30T14:27:24;23.40;34.80
5554;DHT22;2800;49.528;8.666;2023-07-30T14:29:50;23.30;38.50
5554;DHT22;2800;49.528;8.666;2023-07-30T14:32:16;23.10;38.80
5554;DHT22;2800;49.528;8.666;2023-07-30T14:34:42;23.00;42.00
5554;DHT22;2800;49.528;8.666;2023-07-30T14:37:07;23.30;37.10
5554;DHT22;2800;49.528;8.666;2023-07-30T14:39:33;23.50;40.50
5554;DHT22;2800;49.528;8.666;2023-07-30T14:41:58;23.60;40.40
5554;DHT22;2800;49.528;8.666;2023-07-30T14:44:24;23.50;37.50
5554;DHT22;2800;49.528;8.666;2023-07-30T14:46:50;23.20;37.50
5554;DHT22;2800;49.528;8.666;2023-07-30T14:49:15;23.20;34.70
5554;DHT22;2800;49.528;8.666;2023-07-30T14:51:41;22.90;34.80
5554;DHT22;2800;49.528;8.666;2023-07-30T14:54:06;22.80;36.60
5554;DHT22;2800;49.528;8.666;2023-07-30T14:56:32;23.00;37.40
5554;DHT22;2800;49.528;8.666;2023-07-30T14:58:57;22.80;35.20
5554;DHT22;2800;49.528;8.666;2023-07-30T15:01:28;22.80;35.00
5554;DHT22;2800;49.528;8.666;2023-07-30T15:03:54;23.00;37.20
5554;DHT22;2800;49.528;8.666;2023-07-30T15:06:19;22.90;37.80
5554;DHT22;2800;49.528;8.666;2023-07-30T15:08:46;22.80;33.40
5554;DHT22;2800;49.528;8.666;2023-07-30T15:11:12;22.60;32.00
5554;DHT22;2800;49.528;8.666;2023-07-30T15:13:39;22.60;34.80
5554;DHT22;2800;49.528;8.666;2023-07-30T15:16:05;22.80;38.90
5554;DHT22;2800;49.528;8.666;2023-07-30T15:18:31;23.20;35.80
5554;DHT22;2800;49.528;8.666;2023-07-30T15:20:56;24.20;38.60
5554;DHT22;2800;49.528;8.666;2023-07-30T15:23:22;25.10;40.00
5554;DHT22;2800;49.528;8.666;2023-07-30T15:25:47;25.10;34.70
5554;DHT22;2800;49.528;8.666;2023-07-30T15:28:14;24.80;34.50
5554;DHT22;2800;49.528;8.666;2023-07-30T15:30:40;24.00;32.30
5554;DHT22;2800;49.528;8.666;2023-07-30T15:33:08;23.70;30.50
5554;DHT22;2800;49.528;8.666;2023-07-30T15:35:34;23.50;32.10
5554;DHT22;2800;49.528;8.666;2023-07-30T15:37:59;23.60;31.00
5554;DHT22;2800;49.528;8.666;2023-07-30T15:40:25;24.30;33.60
5554;DHT22;2800;49.528;8.666;2023-07-30T15:42:51;24.20;30.00
5554;DHT22;2800;49.528;8.666;2023-07-30T15:45:16;24.30;30.70
5554;DHT22;2800;49.528;8.666;2023-07-30T15:47:43;24.10;31.30
5554;DHT22;2800;49.528;8.666;2023-07-30T15:50:08;24.40;34.50
5554;DHT22;2800;49.528;8.666;2023-07-30T15:52:34;24.60;29.30
5554;DHT22;2800;49.528;8.666;2023-07-30T15:54:59;24.00;28.90
5554;DHT22;2800;49.528;8.666;2023-07-30T15:57:25;23.50;29.90
5554;DHT22;2800;49.528;8.666;2023-07-30T15:59:50;23.10;29.00